Harrisburg International Airport Harrisburg US
ICAO: KMDT
IATA: MDT
Category: Medium
Scheduled Services: Yes

Elevation: 310 ft
TransAlt. 18000 ft.

Airport Communications:
APP/DEP:118.25
ATIS:118.8
GND:121.7
ANG OPS:39.51
TWR:124.8

KMDT Zoom In..

Runways:

(A) RW 13 length 10002 ft width 200 ft
ILS 110.90 / hdg 128

(B) RW 31 length 10002 ft width 200 ft
ILS 110.90 / hdg 308

Location; KMDT
Day. 20 / Time. 19.56 Zulu
* Altimeter: 30.05
* Temperature: 30° c. 86°f.
* Wind from: 130° Speed 14 kn with Gusts up to 20 kn.
Dewpoint: 15° c.
Visibility: 10 Statute Miles.
Clouds: Scattered 6500 ft.
Clouds: Scattered 2000 ft.

KMDT 201956Z 13014G20KT 10SM SCT065 SCT200 30/15 A3005 RMK AO2 SLP173 T03000150


Wind From 130°
Speed 14 kn.

 
 
jpsmedia.com for Web Design worldairports.se 2018   terms of use